Impacts TAF Board
For situational awareness. Not to be used for flight planning purposes.
IDs:

KSRQ - Sarasota-Bradenton I, FL, US

Issued at 0531 UTC 27 Feb 2020
Updated at 0801 UTC 27 Feb 2020
Potential Impact None Slight Moderate High
Time<<27/20Z 27/21Z 27/22Z 27/23Z 28/00Z 28/01Z 28/02Z 28/03Z 28/04Z 28/05Z 28/06Z 28/07Z 28/08Z>>
Type PRVL PRVL PRVL PRVL PRVL PRVL PRVL PRVL PRVL PRVL
VIS >6 >6 >6 >6 >6 >6 >6 >6 >6 >6
CIG -- -- -- -- -- -- -- -- -- --
Cover SCT SCT SKC SKC SKC SKC SKC SKC SKC SKC
FltCat VFR VFR VFR VFR VFR VFR VFR VFR VFR VFR
WX -- -- -- -- -- -- -- -- -- --
WDir 340 340 320 320 320 340 340 340 340 340
WSpd 13 13 12 12 12 6 6 6 6 6
WGst 20 20 -- -- -- -- -- -- -- --
Raw TAF
KSRQ 270531Z 2706/2806 34013G20KT P6SM -RA FEW010 SCT030 OVC120
  TEMPO 2706/2709 BKN030
  FM270900 35013G20KT P6SM SCT035 BKN130
  FM271600 34013G20KT P6SM FEW035 SCT250
  FM272200 32012KT P6SM SKC
  FM280100 34006KT P6SM SKC


METAR Board
Radar Display
Forecast Discussion
For situational awareness. Not to be used for flight planning purposes.